createdAt,value
2019-03-11T00:00:58.223Z,1.20
2019-03-11T00:03:24.747Z,1.30
2019-03-11T00:05:51.292Z,1.10
2019-03-11T00:08:17.831Z,1.03
2019-03-11T00:10:44.662Z,0.90
2019-03-11T00:13:11.504Z,1.17
2019-03-11T00:15:38.035Z,1.30
2019-03-11T00:18:04.880Z,1.00
2019-03-11T00:20:31.724Z,1.10
2019-03-11T00:22:58.252Z,1.17
2019-03-11T00:25:24.811Z,1.03
2019-03-11T00:27:51.629Z,1.30
2019-03-11T00:30:18.167Z,1.07
2019-03-11T00:32:45.006Z,1.40
2019-03-11T00:35:11.543Z,1.00
2019-03-11T00:37:38.092Z,1.13
2019-03-11T00:40:04.923Z,1.00
2019-03-11T00:42:31.457Z,1.07
2019-03-11T00:44:58.292Z,0.93
2019-03-11T00:47:24.828Z,0.97
2019-03-11T00:49:51.366Z,0.97
2019-03-11T00:52:18.202Z,1.00
2019-03-11T00:54:44.737Z,0.90
2019-03-11T00:57:11.279Z,1.00
2019-03-11T00:59:37.815Z,0.60
2019-03-11T01:02:04.708Z,0.90
2019-03-11T01:04:31.491Z,0.90
2019-03-11T01:06:58.335Z,0.80
2019-03-11T01:09:25.177Z,0.80
2019-03-11T01:11:51.707Z,0.63
2019-03-11T01:14:18.555Z,0.80
2019-03-11T01:16:45.391Z,1.00
2019-03-11T01:19:11.926Z,0.93
2019-03-11T01:21:38.777Z,0.70
2019-03-11T01:24:05.608Z,0.90
2019-03-11T01:26:32.142Z,0.97
2019-03-11T01:28:58.991Z,1.00
2019-03-11T01:31:25.828Z,1.00
2019-03-11T01:33:52.363Z,0.80
2019-03-11T01:36:18.987Z,0.70
2019-03-11T01:38:45.736Z,0.73
2019-03-11T01:41:12.582Z,0.70
2019-03-11T01:43:39.121Z,0.80
2019-03-11T01:46:05.955Z,0.50
2019-03-11T01:48:32.491Z,0.70
2019-03-11T01:50:59.333Z,0.60
2019-03-11T01:53:26.174Z,0.60
2019-03-11T01:55:52.731Z,0.67
2019-03-11T01:58:19.558Z,0.70
2019-03-11T02:00:46.391Z,0.60
2019-03-11T02:03:12.932Z,0.60
2019-03-11T02:05:39.460Z,0.50
2019-03-11T02:08:06.309Z,0.80
2019-03-11T02:10:32.838Z,0.50
2019-03-11T02:12:59.678Z,0.60
2019-03-11T02:15:26.522Z,0.50
2019-03-11T02:17:53.054Z,0.50
2019-03-11T02:20:19.590Z,0.60
2019-03-11T02:22:46.429Z,0.50
2019-03-11T02:25:12.972Z,0.50
2019-03-11T02:27:39.807Z,0.40
2019-03-11T02:30:06.649Z,0.53
2019-03-11T02:32:33.227Z,0.40
2019-03-11T02:35:00.025Z,0.67
2019-03-11T02:37:26.867Z,0.50
2019-03-11T02:39:53.404Z,0.50
2019-03-11T02:42:19.937Z,0.50
2019-03-11T02:44:46.776Z,0.40
2019-03-11T02:47:13.312Z,0.50
2019-03-11T02:49:43.641Z,0.50
2019-03-11T02:52:08.533Z,0.70
2019-03-11T02:54:35.370Z,0.33
2019-03-11T02:57:01.844Z,0.30
2019-03-11T02:59:28.441Z,0.40
2019-03-11T03:01:54.979Z,0.40
2019-03-11T03:04:21.830Z,0.50
2019-03-11T03:06:48.664Z,0.60
2019-03-11T03:09:15.210Z,0.30
2019-03-11T03:11:42.044Z,0.43
2019-03-11T03:14:08.576Z,0.40
2019-03-11T03:16:35.114Z,0.50
2019-03-11T03:19:01.949Z,0.23
2019-03-11T03:21:28.790Z,0.30
2019-03-11T03:23:55.350Z,0.50
2019-03-11T03:26:21.970Z,0.40
2019-03-11T03:28:48.699Z,0.47
2019-03-11T03:31:15.233Z,0.30
2019-03-11T03:33:41.856Z,0.30
2019-03-11T03:36:08.610Z,0.30
2019-03-11T03:38:35.150Z,0.30
2019-03-11T03:41:01.680Z,0.37
2019-03-11T03:43:28.196Z,0.33
2019-03-11T03:45:54.746Z,0.27
2019-03-11T03:48:21.603Z,0.20
2019-03-11T03:50:48.431Z,0.30
2019-03-11T03:53:14.965Z,0.20
2019-03-11T03:55:41.497Z,0.30
2019-03-11T03:58:08.040Z,0.30
2019-03-11T04:00:34.572Z,0.40
2019-03-11T04:03:01.112Z,0.30
2019-03-11T04:05:27.943Z,0.40
2019-03-11T04:07:54.476Z,0.40
2019-03-11T04:10:21.321Z,0.40
2019-03-11T04:12:48.166Z,0.40
2019-03-11T04:15:14.705Z,0.30
2019-03-11T04:17:41.232Z,0.60
2019-03-11T04:20:07.769Z,0.43
2019-03-11T04:22:34.610Z,0.47
2019-03-11T04:25:01.460Z,0.30
2019-03-11T04:27:28.290Z,0.30
2019-03-11T04:29:54.827Z,0.40
2019-03-11T04:32:21.359Z,0.50
2019-03-11T04:34:48.215Z,0.40
2019-03-11T04:37:15.045Z,0.33
2019-03-11T04:39:41.881Z,0.50
2019-03-11T04:42:08.426Z,0.40
2019-03-11T04:44:35.259Z,0.40
2019-03-11T04:47:01.796Z,0.60
2019-03-11T04:49:28.460Z,0.70
2019-03-11T04:51:55.172Z,0.40
2019-03-11T04:54:21.702Z,0.43
2019-03-11T04:56:48.240Z,0.40
2019-03-11T04:59:15.085Z,0.27
2019-03-11T05:01:41.928Z,0.40
2019-03-11T05:04:08.462Z,0.40
2019-03-11T05:06:34.991Z,0.50
2019-03-11T05:09:01.530Z,0.50
2019-03-11T05:11:28.064Z,0.33
2019-03-11T05:13:54.905Z,0.50
2019-03-11T05:16:21.443Z,0.40
2019-03-11T05:18:48.279Z,0.50
2019-03-11T05:21:14.822Z,0.47
2019-03-11T05:23:41.659Z,0.57
2019-03-11T05:26:08.494Z,0.37
2019-03-11T05:28:35.030Z,0.50
2019-03-11T05:31:01.925Z,0.40
2019-03-11T05:33:28.712Z,0.30
2019-03-11T05:35:55.249Z,0.40
2019-03-11T05:38:22.139Z,0.50
2019-03-11T05:40:48.734Z,0.40
2019-03-11T05:43:15.467Z,0.33
2019-03-11T05:45:42.308Z,0.50
2019-03-11T05:48:08.843Z,0.60
2019-03-11T05:50:35.481Z,0.40
2019-03-11T05:53:02.221Z,0.50
2019-03-11T05:55:28.759Z,0.50
2019-03-11T05:57:55.596Z,0.43
2019-03-11T06:00:22.136Z,0.40
2019-03-11T06:02:48.983Z,0.40
2019-03-11T06:05:15.504Z,0.40
2019-03-11T06:07:42.688Z,0.30
2019-03-11T06:10:09.494Z,0.30
2019-03-11T06:12:36.365Z,0.47
2019-03-11T06:15:02.857Z,0.30
2019-03-11T06:17:29.419Z,0.70
2019-03-11T06:19:55.941Z,0.40
2019-03-11T06:22:22.477Z,0.57
2019-03-11T06:24:49.326Z,0.50
2019-03-11T06:27:16.158Z,0.30
2019-03-11T06:29:42.695Z,0.40
2019-03-11T06:32:09.536Z,0.50
2019-03-11T06:34:36.046Z,0.93
2019-03-11T06:37:02.609Z,0.43
2019-03-11T06:39:29.448Z,0.40
2019-03-11T06:41:55.981Z,0.40
2019-03-11T06:44:22.602Z,0.50
2019-03-11T06:46:49.363Z,0.57
2019-03-11T06:49:15.951Z,0.40
2019-03-11T06:51:42.732Z,0.50
2019-03-11T06:54:09.266Z,0.60
2019-03-11T06:56:36.115Z,0.53
2019-03-11T06:59:02.679Z,0.50
2019-03-11T07:01:29.482Z,0.50
2019-03-11T07:03:56.105Z,0.50
2019-03-11T07:06:22.591Z,0.40
2019-03-11T07:08:49.398Z,0.40
2019-03-11T07:11:15.940Z,0.47
2019-03-11T07:13:42.769Z,0.40
2019-03-11T07:16:09.720Z,0.67
2019-03-11T07:18:36.767Z,0.50
2019-03-11T07:21:03.302Z,0.50
2019-03-11T07:23:30.137Z,0.40
2019-03-11T07:25:56.670Z,0.40
2019-03-11T07:28:23.514Z,0.53
2019-03-11T07:30:50.048Z,0.53
2019-03-11T07:33:16.585Z,0.53
2019-03-11T07:35:43.115Z,0.57
2019-03-11T07:38:09.958Z,0.40
2019-03-11T07:40:36.799Z,0.40
2019-03-11T07:43:03.339Z,0.40
2019-03-11T07:45:29.873Z,0.50
2019-03-11T07:47:56.488Z,0.80
2019-03-11T07:50:23.244Z,0.50
2019-03-11T07:52:50.094Z,0.57
2019-03-11T07:55:16.565Z,0.57
2019-03-11T07:57:43.045Z,0.70
2019-03-11T08:00:09.518Z,0.77
2019-03-11T08:02:36.022Z,0.67
2019-03-11T08:05:02.595Z,0.70
2019-03-11T08:07:29.330Z,0.70
2019-03-11T08:09:56.138Z,0.70
2019-03-11T08:12:22.673Z,0.53
2019-03-11T08:14:49.194Z,1.17
2019-03-11T08:17:16.043Z,1.60
2019-03-11T08:19:42.583Z,1.60
2019-03-11T08:22:09.115Z,1.67
2019-03-11T08:24:35.566Z,1.40
2019-03-11T08:27:02.026Z,1.50
2019-03-11T08:29:28.717Z,1.70
2019-03-11T08:31:55.254Z,1.40
2019-03-11T08:34:21.793Z,1.20
2019-03-11T08:36:48.408Z,1.20
2019-03-11T08:39:15.473Z,1.50
2019-03-11T08:41:42.318Z,1.23
2019-03-11T08:44:08.846Z,1.63
2019-03-11T08:46:35.386Z,1.90
2019-03-11T08:49:01.921Z,1.80
2019-03-11T08:51:28.454Z,1.33
2019-03-11T08:53:55.299Z,1.40
2019-03-11T08:56:21.830Z,1.60
2019-03-11T08:58:48.674Z,1.40
2019-03-11T09:01:15.204Z,1.60
2019-03-11T09:03:42.048Z,1.80
2019-03-11T09:06:08.889Z,1.40
2019-03-11T09:08:35.421Z,1.80
2019-03-11T09:11:01.960Z,1.80
2019-03-11T09:13:28.806Z,1.90
2019-03-11T09:15:55.340Z,1.80
2019-03-11T09:18:22.189Z,2.17
2019-03-11T09:20:48.706Z,1.60
2019-03-11T09:23:15.242Z,2.13
2019-03-11T09:25:41.778Z,1.70
2019-03-11T09:28:08.651Z,1.80
2019-03-11T09:30:35.460Z,1.53
2019-03-11T09:33:02.001Z,2.00
2019-03-11T09:35:28.463Z,1.90
2019-03-11T09:37:55.062Z,1.97
2019-03-11T09:40:21.904Z,1.90
2019-03-11T09:42:48.745Z,2.00
2019-03-11T09:45:15.277Z,1.50
2019-03-11T09:47:42.122Z,2.03
2019-03-11T09:50:08.654Z,2.10
2019-03-11T09:52:35.191Z,1.90
2019-03-11T09:55:02.031Z,1.93
2019-03-11T09:57:28.571Z,2.07
2019-03-11T09:59:55.111Z,1.80
2019-03-11T10:02:21.948Z,2.33
2019-03-11T10:04:48.476Z,2.20
2019-03-11T10:07:15.098Z,1.70
2019-03-11T10:09:41.631Z,2.00
2019-03-11T10:12:08.385Z,2.00
2019-03-11T10:14:34.923Z,2.10
2019-03-11T10:17:01.458Z,1.87
2019-03-11T10:19:28.296Z,1.87
2019-03-11T10:21:54.832Z,1.70
2019-03-11T10:24:21.370Z,1.90
2019-03-11T10:26:48.210Z,2.00
2019-03-11T10:29:14.741Z,2.03
2019-03-11T10:31:41.584Z,1.57
2019-03-11T10:34:08.120Z,1.80
2019-03-11T10:36:34.961Z,2.17
2019-03-11T10:39:01.493Z,1.73
2019-03-11T10:41:28.335Z,1.80
2019-03-11T10:43:55.519Z,1.80
2019-03-11T10:46:22.314Z,1.77
2019-03-11T10:48:49.208Z,1.80
2019-03-11T10:51:16.329Z,1.70
2019-03-11T10:53:43.164Z,1.50
2019-03-11T10:56:10.046Z,1.90
2019-03-11T10:58:36.849Z,1.60
2019-03-11T11:01:03.388Z,1.80
2019-03-11T11:03:29.864Z,1.97
2019-03-11T11:05:56.448Z,1.80
2019-03-11T11:08:23.172Z,1.57
2019-03-11T11:10:49.824Z,1.63
2019-03-11T11:13:16.358Z,1.53
2019-03-11T11:15:44.050Z,2.00
2019-03-11T11:18:10.652Z,1.60
2019-03-11T11:20:37.494Z,1.40
2019-03-11T11:23:04.038Z,1.40
2019-03-11T11:25:30.518Z,1.50
2019-03-11T11:27:57.099Z,1.50
2019-03-11T11:30:23.633Z,1.40
2019-03-11T11:32:50.257Z,1.33
2019-03-11T11:35:16.887Z,1.30
2019-03-11T11:37:43.545Z,1.33
2019-03-11T11:40:10.168Z,1.60
2019-03-11T11:42:36.922Z,1.40
2019-03-11T11:45:03.771Z,1.30
2019-03-11T11:47:30.297Z,1.30
2019-03-11T11:49:56.833Z,1.20
2019-03-11T11:52:23.679Z,1.33
2019-03-11T11:54:50.512Z,1.50
2019-03-11T11:57:17.366Z,1.37
2019-03-11T11:59:53.613Z,1.13
2019-03-11T12:02:12.276Z,1.47
2019-03-11T12:04:38.802Z,1.17
2019-03-11T12:07:05.338Z,1.43
2019-03-11T12:09:32.176Z,1.27
2019-03-11T12:11:58.714Z,1.30
2019-03-11T12:14:25.171Z,1.30
2019-03-11T12:16:51.781Z,1.50
2019-03-11T12:19:18.317Z,0.90
2019-03-11T12:21:45.155Z,1.37
2019-03-11T12:24:11.702Z,1.37
2019-03-11T12:26:38.535Z,2.13
2019-03-11T12:29:05.383Z,1.23
2019-03-11T12:31:31.919Z,1.50
2019-03-11T12:33:58.755Z,1.30
2019-03-11T12:36:25.595Z,1.50
2019-03-11T12:38:52.128Z,1.70
2019-03-11T12:41:18.970Z,1.90
2019-03-11T12:43:45.506Z,1.57
2019-03-11T12:46:12.131Z,2.00
2019-03-11T12:48:38.881Z,1.40
2019-03-11T12:51:05.417Z,1.50
2019-03-11T12:53:32.259Z,1.63
2019-03-11T12:55:58.795Z,1.70
2019-03-11T12:58:25.690Z,1.83
2019-03-11T13:00:52.488Z,1.40
2019-03-11T13:03:19.011Z,1.53
2019-03-11T13:05:45.540Z,1.40
2019-03-11T13:08:12.074Z,1.50
2019-03-11T13:10:39.206Z,1.53
2019-03-11T13:13:05.759Z,1.97
2019-03-11T13:15:32.439Z,1.83
2019-03-11T13:17:59.142Z,1.87
2019-03-11T13:20:25.779Z,1.80
2019-03-11T13:22:53.851Z,1.70
2019-03-11T13:25:20.703Z,1.80
2019-03-11T13:27:47.502Z,1.80
2019-03-11T13:30:14.076Z,2.00
2019-03-11T13:32:40.789Z,2.10
2019-03-11T13:35:07.816Z,1.80
2019-03-11T13:37:34.427Z,1.83
2019-03-11T13:40:00.917Z,2.07
2019-03-11T13:42:27.590Z,1.80
2019-03-11T13:44:54.380Z,2.03
2019-03-11T13:47:21.245Z,1.90
2019-03-11T13:49:47.823Z,2.07
2019-03-11T13:52:14.314Z,1.80
2019-03-11T13:54:40.785Z,2.00
2019-03-11T13:57:07.275Z,2.00
2019-03-11T13:59:33.964Z,1.90
2019-03-11T14:02:00.748Z,2.33
2019-03-11T14:04:27.591Z,2.37
2019-03-11T14:06:54.251Z,2.10
2019-03-11T14:09:20.724Z,2.03
2019-03-11T14:11:47.238Z,2.00
2019-03-11T14:14:13.734Z,2.20
2019-03-11T14:16:40.174Z,2.00
2019-03-11T14:19:06.692Z,1.93
2019-03-11T14:21:33.142Z,2.27
2019-03-11T14:23:59.871Z,2.27
2019-03-11T14:26:26.706Z,2.07
2019-03-11T14:28:53.199Z,2.07
2019-03-11T14:31:19.731Z,2.37
2019-03-11T14:33:46.174Z,2.53
2019-03-11T14:36:12.841Z,2.80
2019-03-11T14:38:39.354Z,2.50
2019-03-11T14:41:05.885Z,2.40
2019-03-11T14:43:32.361Z,2.07
2019-03-11T14:45:58.982Z,2.20
2019-03-11T14:48:26.139Z,1.90
2019-03-11T14:50:54.983Z,2.20
2019-03-11T14:53:20.865Z,2.40
2019-03-11T14:55:47.651Z,2.30
2019-03-11T14:58:14.448Z,2.10
2019-03-11T15:00:41.055Z,2.20
2019-03-11T15:03:07.547Z,2.03
2019-03-11T15:05:35.044Z,2.00
2019-03-11T15:08:01.575Z,1.83
2019-03-11T15:10:28.326Z,1.70
2019-03-11T15:12:55.778Z,1.80
2019-03-11T15:15:22.310Z,1.70
2019-03-11T15:17:48.848Z,1.97
2019-03-11T15:20:15.687Z,2.13
2019-03-11T15:22:42.219Z,1.83
2019-03-11T15:25:09.063Z,1.50
2019-03-11T15:27:35.595Z,1.70
2019-03-11T15:30:02.435Z,1.80
2019-03-11T15:32:28.970Z,1.70
2019-03-11T15:34:55.813Z,1.90
2019-03-11T15:37:22.678Z,1.57
2019-03-11T15:39:49.196Z,1.40
2019-03-11T15:42:15.721Z,1.40
2019-03-11T15:44:42.359Z,1.90
2019-03-11T15:47:09.105Z,1.63
2019-03-11T15:49:35.643Z,2.43
2019-03-11T15:52:02.168Z,1.50
2019-03-11T15:54:29.012Z,1.50
2019-03-11T15:56:55.545Z,1.73
2019-03-11T15:59:22.079Z,1.73
2019-03-11T16:01:48.625Z,1.47
2019-03-11T16:04:15.453Z,1.80
2019-03-11T16:06:41.992Z,1.70
2019-03-11T16:09:10.278Z,1.50
2019-03-11T16:11:36.900Z,1.50
2019-03-11T16:14:03.742Z,1.80
2019-03-11T16:16:32.177Z,1.70
2019-03-11T16:18:58.379Z,1.40
2019-03-11T16:21:25.190Z,1.20
2019-03-11T16:23:51.724Z,1.60
2019-03-11T16:26:18.564Z,1.73
2019-03-11T16:28:48.395Z,1.50
2019-03-11T16:31:14.664Z,1.23
2019-03-11T16:33:41.545Z,1.27
2019-03-11T16:36:08.083Z,1.30
2019-03-11T16:38:34.921Z,1.60
2019-03-11T16:41:01.462Z,1.00
2019-03-11T16:43:27.960Z,1.10
2019-03-11T16:45:54.566Z,0.90
2019-03-11T16:48:21.367Z,1.43
2019-03-11T16:50:48.009Z,1.60
2019-03-11T16:53:14.746Z,1.30
2019-03-11T16:55:41.336Z,1.50
2019-03-11T16:58:08.123Z,1.60
2019-03-11T17:00:34.654Z,1.10
2019-03-11T17:03:01.191Z,1.40
2019-03-11T17:05:27.725Z,1.33
2019-03-11T17:07:54.574Z,1.50
2019-03-11T17:10:21.105Z,1.40
2019-03-11T17:12:47.940Z,1.50
2019-03-11T17:15:14.790Z,1.37
2019-03-11T17:17:41.316Z,1.70
2019-03-11T17:20:07.850Z,1.43
2019-03-11T17:22:34.699Z,1.57
2019-03-11T17:25:01.535Z,2.00
2019-03-11T17:27:28.382Z,1.80
2019-03-11T17:29:55.271Z,1.60
2019-03-11T17:32:22.072Z,1.87
2019-03-11T17:34:48.596Z,1.70
2019-03-11T17:37:15.438Z,1.60
2019-03-11T17:39:42.278Z,1.70
2019-03-11T17:42:09.118Z,1.70
2019-03-11T17:44:35.659Z,1.70
2019-03-11T17:47:02.275Z,1.70
2019-03-11T17:49:29.030Z,2.27
2019-03-11T17:51:55.872Z,2.00
2019-03-11T17:54:22.755Z,2.30
2019-03-11T17:56:49.556Z,1.90
2019-03-11T17:59:16.404Z,2.03
2019-03-11T18:01:42.931Z,2.20
2019-03-11T18:04:09.555Z,2.23
2019-03-11T18:06:36.317Z,2.13
2019-03-11T18:09:02.844Z,2.17
2019-03-11T18:11:29.682Z,2.13
2019-03-11T18:13:56.225Z,2.17
2019-03-11T18:16:23.673Z,2.13
2019-03-11T18:18:50.207Z,2.10
2019-03-11T18:21:16.743Z,20.03
2019-03-11T18:23:43.587Z,104.50
2019-03-11T18:26:11.999Z,191.57
2019-03-11T18:28:38.501Z,308.67
2019-03-11T18:31:05.340Z,506.87
2019-03-11T18:33:31.876Z,777.03
2019-03-11T18:35:58.735Z,761.17
2019-03-11T18:38:25.247Z,722.97
2019-03-11T18:40:54.221Z,696.77
2019-03-11T18:43:21.136Z,642.90
2019-03-11T18:45:47.946Z,639.33
2019-03-11T18:48:14.461Z,615.03
2019-03-11T18:50:41.087Z,561.30
2019-03-11T18:53:07.843Z,524.73
2019-03-11T18:55:34.689Z,487.33
2019-03-11T18:58:01.217Z,466.20
2019-03-11T19:00:27.749Z,453.50
2019-03-11T19:02:54.589Z,424.47
2019-03-11T19:05:21.431Z,407.53
2019-03-11T19:07:47.963Z,391.27
2019-03-11T19:10:14.808Z,366.27
2019-03-11T19:12:41.360Z,365.00
2019-03-11T19:15:08.214Z,354.27
2019-03-11T19:17:34.888Z,327.80
2019-03-11T19:20:01.570Z,320.07
2019-03-11T19:22:28.079Z,301.00
2019-03-11T19:24:54.579Z,301.37
2019-03-11T19:27:21.159Z,281.43
2019-03-11T19:29:48.346Z,276.73
2019-03-11T19:32:14.987Z,262.10
2019-03-11T19:34:41.686Z,247.90
2019-03-11T19:37:08.184Z,227.03
2019-03-11T19:39:34.734Z,226.00
2019-03-11T19:42:01.348Z,222.40
2019-03-11T19:44:27.937Z,210.80
2019-03-11T19:46:54.601Z,201.20
2019-03-11T19:49:21.216Z,191.30
2019-03-11T19:51:47.738Z,179.43
2019-03-11T19:54:14.622Z,174.90
2019-03-11T19:56:41.430Z,164.90
2019-03-11T19:59:07.954Z,157.60
2019-03-11T20:01:34.503Z,151.13
2019-03-11T20:04:01.580Z,140.77
2019-03-11T20:06:28.517Z,137.73
2019-03-11T20:08:55.334Z,131.60
2019-03-11T20:11:22.212Z,122.63
2019-03-11T20:13:50.288Z,122.30
2019-03-11T20:16:16.810Z,116.33
2019-03-11T20:18:43.666Z,109.47
2019-03-11T20:21:11.140Z,105.50
2019-03-11T20:23:38.406Z,101.10
2019-03-11T20:26:05.091Z,98.37
2019-03-11T20:28:31.906Z,91.47
2019-03-11T20:30:58.742Z,93.30
2019-03-11T20:33:26.401Z,86.13
2019-03-11T20:35:53.354Z,87.43
2019-03-11T20:38:20.262Z,83.90
2019-03-11T20:40:47.056Z,78.93
2019-03-11T20:43:13.935Z,73.80
2019-03-11T20:45:41.011Z,69.80
2019-03-11T20:48:07.543Z,66.07
2019-03-11T20:50:41.970Z,62.70
2019-03-11T20:53:05.325Z,59.33
2019-03-11T20:55:33.942Z,58.70
2019-03-11T20:57:59.556Z,56.63
2019-03-11T21:00:26.720Z,53.33
2019-03-11T21:02:53.520Z,55.07
2019-03-11T21:05:20.425Z,48.47
2019-03-11T21:07:48.028Z,50.03
2019-03-11T21:10:14.691Z,51.03
2019-03-11T21:12:41.507Z,49.80
2019-03-11T21:15:08.060Z,46.43
2019-03-11T21:17:34.870Z,46.17
2019-03-11T21:20:01.781Z,45.27
2019-03-11T21:22:28.553Z,44.37
2019-03-11T21:24:59.486Z,41.27
2019-03-11T21:27:23.501Z,42.23
2019-03-11T21:29:50.312Z,40.53
2019-03-11T21:32:16.845Z,40.33
2019-03-11T21:34:43.495Z,38.87
2019-03-11T21:37:10.324Z,38.30
2019-03-11T21:39:37.090Z,37.40
2019-03-11T21:42:05.672Z,36.33
2019-03-11T21:44:31.811Z,35.47
2019-03-11T21:46:58.547Z,34.73
2019-03-11T21:49:25.087Z,35.10
2019-03-11T21:51:51.880Z,33.87
2019-03-11T21:54:18.587Z,31.90
2019-03-11T21:56:45.583Z,31.07
2019-03-11T21:59:12.820Z,30.80
2019-03-11T22:01:39.765Z,29.77
2019-03-11T22:04:06.401Z,28.17
2019-03-11T22:06:33.236Z,28.33
2019-03-11T22:09:00.063Z,28.03
2019-03-11T22:11:26.687Z,27.23
2019-03-11T22:13:53.454Z,26.73
2019-03-11T22:16:19.991Z,26.27
2019-03-11T22:18:46.535Z,25.83
2019-03-11T22:21:13.467Z,25.80
2019-03-11T22:23:42.126Z,24.23
2019-03-11T22:26:08.685Z,23.80
2019-03-11T22:28:36.079Z,23.27
2019-03-11T22:31:02.588Z,22.83
2019-03-11T22:33:29.419Z,21.70
2019-03-11T22:35:55.957Z,21.53
2019-03-11T22:38:22.485Z,21.13
2019-03-11T22:40:49.331Z,20.00
2019-03-11T22:43:16.172Z,19.93
2019-03-11T22:45:43.015Z,19.67
2019-03-11T22:48:09.853Z,19.43
2019-03-11T22:50:36.390Z,19.47
2019-03-11T22:53:02.928Z,18.97
2019-03-11T22:55:29.459Z,19.03
2019-03-11T22:57:56.299Z,17.40
2019-03-11T23:00:22.848Z,17.67
2019-03-11T23:02:49.375Z,17.77
2019-03-11T23:05:15.915Z,16.73
2019-03-11T23:07:42.744Z,16.23
2019-03-11T23:10:09.588Z,16.80
2019-03-11T23:12:36.120Z,15.93
2019-03-11T23:15:02.660Z,15.10
2019-03-11T23:17:29.187Z,14.77
2019-03-11T23:19:56.046Z,13.93
2019-03-11T23:22:22.871Z,14.13
2019-03-11T23:24:49.410Z,13.30
2019-03-11T23:27:15.977Z,13.63
2019-03-11T23:29:42.784Z,13.53
2019-03-11T23:32:09.625Z,12.90
2019-03-11T23:34:36.465Z,12.57
2019-03-11T23:37:03.003Z,13.57
2019-03-11T23:39:29.540Z,11.50
2019-03-11T23:41:56.071Z,12.20
2019-03-11T23:44:22.912Z,11.50
2019-03-11T23:46:49.459Z,11.80
2019-03-11T23:49:16.289Z,11.47
2019-03-11T23:51:42.828Z,11.07
2019-03-11T23:54:09.356Z,11.17
2019-03-11T23:56:36.197Z,10.80
2019-03-11T23:59:03.040Z,10.20
